Time;durP1;ratioP1;P1;durP2;ratioP2;P2;SDS_P1;SDS_P2;PMS_P1;PMS_P2;Temp;Humidity;BMP_temperature;BMP_pressure;BME280_temperature;BME280_humidity;BME280_pressure;Samples;Min_cycle;Max_cycle;Signal;HPM_P1;HPM_P2
2022/12/02 00:00:05;;;;;;;44.83;24.65;;;5.70;99.90;;;;;;6248579;28;20512;-83
2022/12/02 00:03:13;;;;;;;48.45;25.13;;;5.70;99.90;;;;;;6249868;28;20049;-82
2022/12/02 00:06:23;;;;;;;52.20;25.97;;;5.70;99.90;;;;;;6251240;28;20055;-83
2022/12/02 00:09:28;;;;;;;48.20;24.17;;;5.70;99.90;;;;;;6268802;28;20105;-82
2022/12/02 00:12:32;;;;;;;49.25;24.77;;;5.70;99.90;;;;;;6273745;28;20049;-81
2022/12/02 00:15:41;;;;;;;53.42;24.75;;;5.70;99.90;;;;;;6272863;28;20049;-82
2022/12/02 00:18:42;;;;;;;44.17;23.27;;;5.70;99.90;;;;;;6272895;28;20053;-82
2022/12/02 00:21:46;;;;;;;51.50;24.55;;;5.70;99.90;;;;;;6278588;28;20044;-83
2022/12/02 00:24:48;;;;;;;57.22;28.73;;;5.70;99.90;;;;;;6279184;28;20049;-83
2022/12/02 00:27:49;;;;;;;49.58;25.83;;;5.60;99.90;;;;;;6277667;28;20045;-82
2022/12/02 00:30:51;;;;;;;49.38;26.75;;;5.60;99.90;;;;;;6278735;28;20045;-83
2022/12/02 00:33:53;;;;;;;47.15;24.92;;;5.60;99.90;;;;;;6278685;28;20104;-82
2022/12/02 00:36:56;;;;;;;49.72;26.95;;;5.60;99.90;;;;;;6278648;28;20068;-82
2022/12/02 00:39:58;;;;;;;54.20;28.35;;;5.60;99.90;;;;;;6279828;28;20041;-83
2022/12/02 00:46:33;;;;;;;51.05;27.35;;;5.60;99.90;;;;;;6280480;28;20049;-81
2022/12/02 00:49:35;;;;;;;50.05;25.40;;;5.60;99.90;;;;;;6280551;28;20051;-81
2022/12/02 00:52:38;;;;;;;53.35;29.30;;;5.60;99.90;;;;;;6281449;28;20119;-82
2022/12/02 00:55:40;;;;;;;49.22;24.85;;;5.60;99.90;;;;;;6278168;28;20049;-83
2022/12/02 00:58:42;;;;;;;54.83;26.23;;;5.60;99.90;;;;;;6258540;28;20071;-81
2022/12/02 01:01:44;;;;;;;49.53;26.60;;;5.60;99.90;;;;;;6256619;28;20045;-81
2022/12/02 01:04:45;;;;;;;48.45;26.27;;;5.60;99.90;;;;;;6281872;28;20097;-81
2022/12/02 01:07:49;;;;;;;50.85;25.90;;;5.60;99.90;;;;;;6277005;28;20046;-84
2022/12/02 01:10:51;;;;;;;50.70;27.48;;;5.70;99.90;;;;;;6253186;28;20057;-84
2022/12/02 01:13:52;;;;;;;52.60;27.42;;;5.70;99.90;;;;;;6255605;28;20053;-83
2022/12/02 01:16:54;;;;;;;51.03;25.27;;;5.70;99.90;;;;;;6272665;28;20514;-83
2022/12/02 01:19:56;;;;;;;47.10;26.23;;;5.70;99.90;;;;;;6279425;28;20128;-83
2022/12/02 01:22:59;;;;;;;47.08;24.70;;;5.70;99.90;;;;;;6280667;28;20139;-82
2022/12/02 01:26:01;;;;;;;52.35;24.48;;;5.70;99.90;;;;;;6281551;28;20409;-82
2022/12/02 01:29:03;;;;;;;48.00;24.48;;;5.70;99.90;;;;;;6279156;28;20051;-82
2022/12/02 01:32:04;;;;;;;52.75;26.33;;;5.70;99.90;;;;;;6278455;28;20444;-83
2022/12/02 01:35:07;;;;;;;48.97;27.13;;;5.60;99.90;;;;;;6277466;28;20037;-81
2022/12/02 01:38:10;;;;;;;53.17;29.55;;;5.60;99.90;;;;;;6277760;28;20047;-82
2022/12/02 01:41:14;;;;;;;52.97;25.77;;;5.60;99.90;;;;;;6277736;28;20052;-82
2022/12/02 01:44:16;;;;;;;43.38;23.10;;;5.60;99.90;;;;;;6276759;28;20522;-82
2022/12/02 01:47:18;;;;;;;50.72;26.58;;;5.60;99.90;;;;;;6278580;28;20052;-82
2022/12/02 01:50:20;;;;;;;55.35;27.83;;;5.60;99.90;;;;;;6281841;28;20422;-82
2022/12/02 01:53:23;;;;;;;54.65;27.08;;;5.60;99.90;;;;;;6275193;28;20051;-82
2022/12/02 01:56:26;;;;;;;56.05;26.48;;;5.60;99.90;;;;;;6279727;28;20542;-83
2022/12/02 01:59:27;;;;;;;57.15;26.23;;;5.50;99.90;;;;;;6280491;28;20100;-82
2022/12/02 02:02:31;;;;;;;57.38;28.17;;;5.50;99.90;;;;;;6281750;28;20049;-82
2022/12/02 02:05:34;;;;;;;56.83;26.10;;;5.50;99.90;;;;;;6280512;28;20045;-82
2022/12/02 02:08:37;;;;;;;55.42;26.48;;;5.50;99.90;;;;;;6285666;28;20062;-83
2022/12/02 02:11:41;;;;;;;50.63;27.10;;;5.50;99.90;;;;;;6283206;28;20053;-82
2022/12/02 02:14:43;;;;;;;51.78;25.58;;;5.50;99.90;;;;;;6276194;28;20052;-82
2022/12/02 02:17:45;;;;;;;57.08;28.52;;;5.50;99.90;;;;;;6275794;28;20071;-81
2022/12/02 02:20:48;;;;;;;64.05;29.92;;;5.50;99.90;;;;;;6275670;28;20456;-81
2022/12/02 02:23:51;;;;;;;51.10;26.58;;;5.50;99.90;;;;;;6276887;28;20053;-81
2022/12/02 02:26:53;;;;;;;53.88;25.25;;;5.40;99.90;;;;;;6278030;28;20055;-82
2022/12/02 02:29:55;;;;;;;53.67;25.88;;;5.50;99.90;;;;;;6275703;28;20063;-82
2022/12/02 02:32:57;;;;;;;59.55;29.60;;;5.40;99.90;;;;;;6276069;28;20047;-81
2022/12/02 02:36:00;;;;;;;55.20;26.90;;;5.40;99.90;;;;;;6277705;28;20057;-82
2022/12/02 02:39:04;;;;;;;51.72;27.38;;;5.40;99.90;;;;;;6275584;28;20544;-82
2022/12/02 02:42:06;;;;;;;60.75;28.25;;;5.40;99.90;;;;;;6274236;28;20057;-81
2022/12/02 02:45:09;;;;;;;58.40;29.55;;;5.40;99.90;;;;;;6275563;28;20049;-81
2022/12/02 02:48:13;;;;;;;55.63;29.40;;;5.40;99.90;;;;;;6276334;28;20056;-82
2022/12/02 02:51:15;;;;;;;56.90;27.60;;;5.40;99.90;;;;;;6275562;28;20079;-81
2022/12/02 02:54:18;;;;;;;59.28;30.33;;;5.40;99.90;;;;;;6274069;28;20044;-82
2022/12/02 02:57:20;;;;;;;57.40;28.83;;;5.40;99.90;;;;;;6273906;28;20051;-81
2022/12/02 03:00:23;;;;;;;61.45;28.83;;;5.30;99.90;;;;;;6274856;28;20045;-81
2022/12/02 03:03:28;;;;;;;60.03;27.65;;;5.30;99.90;;;;;;6275351;28;20053;-82
2022/12/02 03:06:32;;;;;;;57.83;28.42;;;5.30;99.90;;;;;;6274356;28;20055;-82
2022/12/02 03:09:35;;;;;;;59.25;27.10;;;5.10;99.90;;;;;;6274732;28;20045;-83
2022/12/02 03:12:38;;;;;;;65.10;29.65;;;5.20;99.90;;;;;;6274857;28;20049;-82
2022/12/02 03:15:40;;;;;;;65.78;30.33;;;5.30;99.90;;;;;;6275735;28;20051;-81
2022/12/02 03:18:44;;;;;;;63.88;30.58;;;5.30;99.90;;;;;;6274394;28;20049;-81
2022/12/02 03:21:47;;;;;;;51.35;29.35;;;5.30;99.90;;;;;;6275263;28;20059;-81
2022/12/02 03:24:51;;;;;;;60.65;27.83;;;5.30;99.90;;;;;;6275205;28;20116;-84
2022/12/02 03:27:52;;;;;;;54.28;24.65;;;5.30;99.90;;;;;;6274676;28;20055;-83
2022/12/02 03:30:55;;;;;;;57.40;28.65;;;5.30;99.90;;;;;;6275545;28;20057;-81
2022/12/02 03:33:57;;;;;;;67.53;34.45;;;5.30;99.90;;;;;;6275182;28;20170;-83
2022/12/02 03:36:59;;;;;;;56.47;28.50;;;5.30;99.90;;;;;;6276239;28;20047;-83
2022/12/02 03:40:03;;;;;;;56.83;25.60;;;5.30;99.90;;;;;;6274788;28;20125;-82
2022/12/02 03:43:05;;;;;;;58.35;26.67;;;5.30;99.90;;;;;;6276052;28;20048;-81
2022/12/02 03:46:08;;;;;;;54.65;27.23;;;5.30;99.90;;;;;;6275913;28;20041;-81
2022/12/02 03:49:11;;;;;;;55.72;26.33;;;5.30;99.90;;;;;;6276086;28;20053;-81
2022/12/02 03:52:13;;;;;;;54.28;29.52;;;5.30;99.90;;;;;;6275800;28;20045;-82
2022/12/02 03:55:16;;;;;;;63.55;26.52;;;5.30;99.90;;;;;;6277840;28;20128;-82
2022/12/02 03:58:18;;;;;;;54.72;26.65;;;5.30;99.90;;;;;;6280377;28;20056;-82
2022/12/02 04:01:21;;;;;;;63.38;27.15;;;5.30;99.90;;;;;;6298552;28;20044;-83
2022/12/02 04:04:23;;;;;;;56.60;27.60;;;5.30;99.90;;;;;;6305485;28;20415;-82
2022/12/02 04:07:24;;;;;;;53.25;25.83;;;5.30;99.90;;;;;;6305343;28;20055;-82
2022/12/02 04:10:27;;;;;;;54.53;26.48;;;5.20;99.90;;;;;;6306518;28;20051;-82
2022/12/02 04:13:29;;;;;;;62.88;28.63;;;5.20;99.90;;;;;;6307251;28;20048;-82
2022/12/02 04:16:31;;;;;;;57.22;25.67;;;5.30;99.90;;;;;;6308979;28;20041;-81
2022/12/02 04:19:32;;;;;;;64.65;27.08;;;5.20;99.90;;;;;;6308461;28;20083;-81
2022/12/02 04:22:34;;;;;;;54.35;30.55;;;5.20;99.90;;;;;;6309819;28;20479;-81
2022/12/02 04:25:38;;;;;;;55.38;29.85;;;5.20;99.90;;;;;;6309546;28;20048;-81
2022/12/02 04:28:39;;;;;;;56.50;24.83;;;5.30;99.90;;;;;;6306666;28;20044;-82
2022/12/02 04:31:41;;;;;;;57.80;25.25;;;5.30;99.90;;;;;;6307300;28;20045;-82
2022/12/02 04:34:43;;;;;;;53.60;27.73;;;5.30;99.90;;;;;;6307406;28;20062;-82
2022/12/02 04:37:44;;;;;;;57.50;27.50;;;5.30;99.90;;;;;;6298145;28;20127;-81
2022/12/02 04:40:47;;;;;;;63.95;27.92;;;5.30;99.90;;;;;;6268349;28;20049;-82
2022/12/02 04:43:50;;;;;;;54.60;26.13;;;5.30;99.90;;;;;;6257927;28;20056;-82
2022/12/02 04:46:52;;;;;;;57.90;27.60;;;5.30;99.90;;;;;;6259095;28;20069;-82
2022/12/02 04:49:54;;;;;;;56.92;27.77;;;5.30;99.90;;;;;;6282517;28;20053;-80
2022/12/02 04:52:55;;;;;;;53.53;27.00;;;5.30;99.90;;;;;;6287287;28;20045;-81
2022/12/02 04:55:58;;;;;;;59.80;26.98;;;5.30;99.90;;;;;;6291226;28;20045;-82
2022/12/02 04:59:00;;;;;;;58.58;30.05;;;5.30;99.90;;;;;;6307122;28;20063;-82
2022/12/02 05:02:02;;;;;;;57.45;27.23;;;5.30;99.90;;;;;;6312758;28;20045;-82
2022/12/02 05:05:04;;;;;;;56.63;28.60;;;5.30;99.90;;;;;;6311047;28;20041;-82
2022/12/02 05:08:06;;;;;;;52.95;27.42;;;5.20;99.90;;;;;;6312106;28;20074;-81
2022/12/02 05:11:09;;;;;;;62.20;27.05;;;5.20;99.90;;;;;;6312111;28;20048;-82
2022/12/02 05:14:10;;;;;;;57.47;26.05;;;5.20;99.90;;;;;;6305148;28;20597;-81
2022/12/02 05:17:12;;;;;;;52.75;27.83;;;5.20;99.90;;;;;;6304722;28;20048;-82
2022/12/02 05:20:14;;;;;;;52.20;26.00;;;5.20;99.90;;;;;;6304794;28;20493;-82
2022/12/02 05:23:16;;;;;;;62.17;26.23;;;5.20;99.90;;;;;;6305192;28;20187;-81
2022/12/02 05:26:19;;;;;;;57.00;29.83;;;5.30;99.90;;;;;;6306690;28;20051;-80
2022/12/02 05:29:21;;;;;;;52.35;25.55;;;5.30;99.90;;;;;;6306094;28;20105;-81
2022/12/02 05:32:22;;;;;;;60.17;28.85;;;5.20;99.90;;;;;;6305625;28;20056;-81
2022/12/02 05:35:24;;;;;;;54.35;24.73;;;5.20;99.90;;;;;;6306048;28;20044;-81
2022/12/02 05:38:26;;;;;;;60.28;26.00;;;5.20;99.90;;;;;;6305564;28;20064;-81
2022/12/02 05:41:29;;;;;;;55.13;26.10;;;5.20;99.90;;;;;;6305243;28;20445;-81
2022/12/02 05:44:32;;;;;;;67.43;27.55;;;5.20;99.90;;;;;;6305041;28;20063;-80
2022/12/02 05:47:34;;;;;;;59.33;28.48;;;5.20;99.90;;;;;;6304183;28;20052;-82
2022/12/02 05:50:36;;;;;;;64.60;28.65;;;5.20;99.90;;;;;;6302582;28;20056;-82
2022/12/02 05:53:40;;;;;;;61.13;27.77;;;5.30;99.90;;;;;;6301510;28;20141;-81
2022/12/02 05:56:43;;;;;;;60.13;27.55;;;5.30;99.90;;;;;;6301789;28;20044;-82
2022/12/02 05:59:45;;;;;;;53.03;25.90;;;5.30;99.90;;;;;;6276172;28;20059;-83
2022/12/02 06:02:50;;;;;;;61.20;30.13;;;5.30;99.90;;;;;;6290504;28;20127;-81
2022/12/02 06:05:54;;;;;;;58.67;27.95;;;5.30;99.90;;;;;;6288737;28;20112;-82
2022/12/02 06:08:56;;;;;;;57.03;27.10;;;5.20;99.90;;;;;;6283524;28;20118;-82
2022/12/02 06:12:01;;;;;;;65.50;29.20;;;5.20;99.90;;;;;;6282957;28;20498;-82
2022/12/02 06:15:03;;;;;;;52.60;26.77;;;5.20;99.90;;;;;;6283115;28;20055;-81
2022/12/02 06:18:13;;;;;;;54.35;29.15;;;5.20;99.90;;;;;;6280004;28;20056;-81
2022/12/02 06:21:17;;;;;;;64.10;28.17;;;5.30;99.90;;;;;;6280429;28;20056;-81
2022/12/02 06:24:27;;;;;;;54.00;26.67;;;5.20;99.90;;;;;;6280440;28;20051;-81
2022/12/02 06:27:30;;;;;;;55.97;27.08;;;5.20;99.90;;;;;;6282696;28;20055;-81
2022/12/02 06:30:31;;;;;;;49.00;27.67;;;5.20;99.90;;;;;;6283547;28;20055;-81
2022/12/02 06:33:36;;;;;;;59.63;28.25;;;5.20;99.90;;;;;;6280512;28;20053;-80
2022/12/02 06:36:38;;;;;;;55.97;24.85;;;5.10;99.90;;;;;;6279774;28;20052;-80
2022/12/02 06:39:40;;;;;;;55.65;24.73;;;5.10;99.90;;;;;;6279389;28;20049;-80
2022/12/02 06:42:43;;;;;;;54.72;26.88;;;5.10;99.90;;;;;;6279320;28;20053;-80
2022/12/02 06:45:45;;;;;;;50.80;27.58;;;5.10;99.90;;;;;;6277092;28;20044;-80
2022/12/02 06:48:49;;;;;;;47.42;26.35;;;5.10;99.90;;;;;;6277711;28;20049;-80
2022/12/02 06:51:55;;;;;;;58.10;27.08;;;5.00;99.90;;;;;;6277518;28;20670;-81
2022/12/02 06:54:57;;;;;;;61.67;28.30;;;5.00;99.90;;;;;;6278427;28;20054;-80
2022/12/02 06:58:13;;;;;;;63.28;29.85;;;5.00;99.90;;;;;;6280190;28;20530;-80
2022/12/02 07:01:37;;;;;;;61.22;28.60;;;5.00;99.90;;;;;;6282206;28;20053;-80
2022/12/02 07:04:43;;;;;;;60.53;28.15;;;5.00;99.90;;;;;;6278889;28;20049;-80
2022/12/02 07:07:45;;;;;;;61.38;27.88;;;5.00;99.90;;;;;;6284366;28;20544;-81
2022/12/02 07:10:48;;;;;;;55.33;26.52;;;5.00;99.90;;;;;;6281143;28;20045;-80
2022/12/02 07:13:51;;;;;;;58.53;28.27;;;5.00;99.90;;;;;;6282221;28;20051;-80
2022/12/02 07:16:54;;;;;;;59.60;31.83;;;5.00;99.90;;;;;;6282562;28;20041;-80
2022/12/02 07:20:01;;;;;;;58.40;26.48;;;5.00;99.90;;;;;;6280229;28;20136;-81
2022/12/02 07:23:11;;;;;;;60.83;28.20;;;5.00;99.90;;;;;;6281153;28;20049;-81
2022/12/02 07:26:13;;;;;;;59.80;28.85;;;5.00;99.90;;;;;;6279801;28;20045;-81
2022/12/02 07:29:26;;;;;;;69.75;27.55;;;5.00;99.90;;;;;;6278148;28;20065;-81
2022/12/02 07:32:28;;;;;;;60.50;26.63;;;5.00;99.90;;;;;;6278982;28;20433;-80
2022/12/02 07:35:29;;;;;;;60.22;28.60;;;5.00;99.90;;;;;;6279142;28;20057;-81
2022/12/02 07:38:31;;;;;;;67.85;31.52;;;5.10;99.90;;;;;;6278858;28;20059;-80
2022/12/02 07:41:33;;;;;;;73.97;33.55;;;5.10;99.90;;;;;;6278531;28;20053;-80
2022/12/02 07:44:36;;;;;;;58.50;29.10;;;5.10;99.90;;;;;;6279573;28;20045;-79
2022/12/02 07:47:38;;;;;;;59.13;26.67;;;5.20;99.90;;;;;;6279445;28;20072;-81
2022/12/02 07:50:40;;;;;;;64.22;27.05;;;5.20;99.90;;;;;;6280119;28;20261;-80
2022/12/02 07:53:42;;;;;;;54.22;25.55;;;5.20;99.90;;;;;;6280322;28;20055;-80
2022/12/02 07:56:43;;;;;;;72.30;28.48;;;5.20;99.90;;;;;;6280950;28;20059;-80
2022/12/02 07:59:47;;;;;;;72.63;28.70;;;5.20;99.90;;;;;;6292235;28;20040;-80
2022/12/02 08:02:48;;;;;;;56.30;27.20;;;5.30;99.90;;;;;;6306440;28;20055;-80
2022/12/02 08:05:50;;;;;;;64.43;29.60;;;5.40;99.90;;;;;;6306112;28;20048;-80
2022/12/02 08:08:52;;;;;;;62.42;28.20;;;5.40;99.90;;;;;;6310714;28;20079;-79
2022/12/02 08:11:53;;;;;;;60.88;25.95;;;5.30;99.90;;;;;;6309975;28;20045;-79
2022/12/02 08:14:56;;;;;;;65.40;27.75;;;5.30;99.90;;;;;;6305711;28;20059;-79
2022/12/02 08:17:58;;;;;;;56.50;25.60;;;5.30;99.90;;;;;;6303318;28;20045;-80
2022/12/02 08:21:00;;;;;;;48.08;24.95;;;5.30;99.90;;;;;;6305550;28;20059;-80
2022/12/02 08:24:02;;;;;;;57.08;25.38;;;5.20;99.90;;;;;;6304381;28;20048;-80
2022/12/02 08:27:04;;;;;;;65.50;35.92;;;5.20;99.90;;;;;;6302726;28;20056;-80
2022/12/02 08:30:09;;;;;;;58.33;27.42;;;5.20;99.90;;;;;;6299964;28;20053;-80
2022/12/02 08:33:11;;;;;;;82.05;49.33;;;5.20;99.90;;;;;;6299301;28;20044;-80
2022/12/02 08:36:14;;;;;;;139.75;89.30;;;5.20;99.90;;;;;;6299284;28;20041;-79
2022/12/02 08:39:16;;;;;;;62.83;41.88;;;5.30;99.90;;;;;;6298767;28;20072;-80
2022/12/02 08:42:18;;;;;;;64.90;33.15;;;5.30;99.90;;;;;;6301514;28;20063;-80
2022/12/02 08:45:23;;;;;;;68.03;30.05;;;5.30;99.90;;;;;;6235168;28;20048;-82
2022/12/02 08:48:25;;;;;;;69.75;27.67;;;5.40;99.90;;;;;;6284263;28;20045;-81
2022/12/02 08:51:27;;;;;;;56.45;25.45;;;5.40;99.90;;;;;;6263486;28;20049;-80
2022/12/02 08:54:35;;;;;;;55.08;27.75;;;5.40;99.90;;;;;;6293905;28;20044;-82
2022/12/02 08:57:37;;;;;;;68.95;32.13;;;5.40;99.90;;;;;;6259730;28;20056;-80
2022/12/02 09:00:42;;;;;;;64.75;29.88;;;5.40;99.90;;;;;;6269720;28;20109;-80
2022/12/02 09:03:44;;;;;;;62.95;28.00;;;5.40;99.90;;;;;;6303875;28;20044;-81
2022/12/02 09:06:45;;;;;;;59.65;28.15;;;5.40;99.90;;;;;;6312812;28;20124;-83
2022/12/02 09:13:04;;;;;;;64.50;29.38;;;5.40;99.90;;;;;;6306008;28;20040;-82
2022/12/02 09:19:30;;;;;;;57.22;26.45;;;5.40;99.90;;;;;;6301552;28;20505;-80
2022/12/02 09:22:33;;;;;;;50.33;28.20;;;5.40;99.90;;;;;;6294195;28;20049;-83
2022/12/02 09:25:34;;;;;;;57.05;27.70;;;5.40;99.90;;;;;;6278921;28;20048;-81
2022/12/02 09:28:36;;;;;;;53.38;25.15;;;5.40;99.90;;;;;;6265802;28;20053;-84
2022/12/02 09:31:39;;;;;;;48.65;26.63;;;5.30;99.90;;;;;;6254133;28;20071;-80
2022/12/02 09:34:41;;;;;;;52.58;23.83;;;5.30;99.90;;;;;;6255773;28;20053;-81
2022/12/02 09:37:43;;;;;;;56.80;26.38;;;5.40;99.90;;;;;;6254251;28;20053;-82
2022/12/02 09:40:44;;;;;;;54.78;22.67;;;5.40;99.90;;;;;;6252270;28;20053;-83
2022/12/02 09:43:46;;;;;;;51.63;24.88;;;5.40;99.90;;;;;;6251396;28;20045;-82
2022/12/02 09:46:50;;;;;;;59.25;27.00;;;5.40;99.90;;;;;;6249430;28;20053;-84
2022/12/02 09:49:54;;;;;;;41.83;21.48;;;5.40;99.90;;;;;;6247687;28;20042;-81
2022/12/02 09:53:02;;;;;;;51.13;23.60;;;5.30;99.90;;;;;;6248008;28;20052;-81
2022/12/02 09:56:05;;;;;;;52.10;25.40;;;5.40;99.90;;;;;;6245777;28;20049;-81
2022/12/02 09:59:14;;;;;;;53.58;30.23;;;5.40;99.90;;;;;;6255609;28;20053;-80
2022/12/02 10:02:26;;;;;;;54.10;24.48;;;5.40;99.90;;;;;;6248511;28;20159;-84
2022/12/02 10:05:29;;;;;;;59.05;26.55;;;5.50;99.90;;;;;;6248111;28;20047;-80
2022/12/02 10:08:31;;;;;;;56.38;23.02;;;5.50;99.90;;;;;;6250089;28;20057;-81
2022/12/02 10:11:33;;;;;;;57.05;27.60;;;5.50;99.90;;;;;;6251530;28;20041;-83
2022/12/02 10:14:35;;;;;;;50.08;24.23;;;5.60;99.90;;;;;;6274129;28;20075;-82
2022/12/02 10:17:38;;;;;;;60.08;26.38;;;5.60;99.90;;;;;;6271484;28;20049;-80
2022/12/02 10:20:40;;;;;;;54.60;27.65;;;5.60;99.90;;;;;;6274760;28;20045;-81
2022/12/02 10:23:54;;;;;;;58.63;25.33;;;5.70;99.90;;;;;;6251940;28;20048;-80
2022/12/02 10:26:56;;;;;;;46.65;24.67;;;5.70;99.90;;;;;;6254011;28;20049;-81
2022/12/02 10:30:15;;;;;;;50.83;23.33;;;5.70;99.90;;;;;;6252912;28;20053;-80
2022/12/02 10:33:24;;;;;;;;;;;5.70;99.90;;;;;;6253980;28;20101;-82
2022/12/02 10:36:34;;;;;;;56.55;27.13;;;5.70;99.90;;;;;;6251414;28;19909;-81
2022/12/02 10:39:36;;;;;;;60.78;27.33;;;5.70;99.90;;;;;;6249855;28;20048;-82
2022/12/02 10:42:38;;;;;;;55.70;26.42;;;5.70;99.90;;;;;;6249387;28;20434;-80
2022/12/02 10:45:39;;;;;;;54.53;27.27;;;5.70;99.90;;;;;;6251865;28;20060;-83
2022/12/02 10:48:42;;;;;;;61.60;25.88;;;5.80;99.90;;;;;;6252875;28;20180;-81
2022/12/02 10:51:44;;;;;;;54.30;26.30;;;5.80;99.90;;;;;;6254908;28;20052;-80
2022/12/02 10:54:50;;;;;;;56.25;27.70;;;5.80;99.90;;;;;;6256091;28;20091;-80
2022/12/02 10:57:52;;;;;;;58.30;25.17;;;5.80;99.90;;;;;;6257794;28;20053;-80
2022/12/02 11:00:53;;;;;;;54.80;26.15;;;5.70;99.90;;;;;;6277933;28;20045;-80
2022/12/02 11:03:56;;;;;;;57.30;24.02;;;5.70;99.90;;;;;;6272291;28;20044;-79
2022/12/02 11:06:58;;;;;;;53.10;23.17;;;5.70;99.90;;;;;;6308993;28;20054;-82
2022/12/02 11:10:00;;;;;;;52.15;24.42;;;5.70;99.90;;;;;;6313025;28;20103;-80
2022/12/02 11:13:06;;;;;;;63.75;26.05;;;5.70;99.90;;;;;;6263331;28;20045;-82
2022/12/02 11:16:46;;;;;;;46.97;24.15;;;5.70;99.90;;;;;;6252739;28;20423;-81
2022/12/02 11:19:49;;;;;;;47.22;24.20;;;5.80;99.90;;;;;;6241550;28;20049;-81
2022/12/02 11:23:07;;;;;;;60.22;28.55;;;5.80;99.90;;;;;;6283747;28;20049;-81
2022/12/02 11:26:11;;;;;;;57.60;27.77;;;5.80;99.90;;;;;;6282149;28;20510;-79
2022/12/02 11:29:17;;;;;;;71.05;26.25;;;5.80;99.90;;;;;;6280606;28;20132;-81
2022/12/02 11:32:39;;;;;;;47.33;23.13;;;5.80;99.90;;;;;;6280762;28;20048;-81
2022/12/02 11:36:12;;;;;;;55.15;26.27;;;5.80;99.90;;;;;;6280341;28;20122;-81
2022/12/02 11:39:40;;;;;;;47.15;21.50;;;5.80;99.90;;;;;;6278390;28;20044;-81
2022/12/02 11:42:43;;;;;;;51.40;24.10;;;5.80;99.90;;;;;;6279782;28;20060;-81
2022/12/02 11:45:56;;;;;;;45.70;22.80;;;5.80;99.90;;;;;;6278405;28;20051;-81
2022/12/02 11:48:58;;;;;;;44.50;21.00;;;5.80;99.90;;;;;;6277157;28;20060;-81
2022/12/02 11:52:05;;;;;;;51.63;21.00;;;5.80;99.90;;;;;;6279213;28;20061;-82
2022/12/02 11:55:14;;;;;;;45.03;20.63;;;5.80;99.90;;;;;;6278611;28;20118;-80
2022/12/02 11:58:22;;;;;;;40.05;21.58;;;5.80;99.90;;;;;;6279043;28;20055;-81
2022/12/02 12:01:25;;;;;;;40.03;23.52;;;5.80;99.90;;;;;;6278952;28;20060;-81
2022/12/02 12:04:29;;;;;;;43.13;20.38;;;5.80;99.90;;;;;;6286238;28;20045;-81
2022/12/02 12:07:42;;;;;;;41.63;20.85;;;5.80;99.90;;;;;;6278212;28;20525;-82
2022/12/02 12:10:44;;;;;;;38.10;20.33;;;5.80;99.90;;;;;;6280026;28;20049;-81
2022/12/02 12:14:23;;;;;;;44.63;19.42;;;5.80;99.90;;;;;;6278620;28;20053;-81
2022/12/02 12:17:48;;;;;;;39.60;20.30;;;5.80;99.90;;;;;;6264232;28;20052;-81
2022/12/02 12:20:50;;;;;;;41.05;19.52;;;5.80;99.90;;;;;;6267156;28;20055;-81
2022/12/02 12:23:53;;;;;;;46.92;19.13;;;5.80;99.90;;;;;;6285355;28;20516;-81
2022/12/02 12:26:57;;;;;;;37.17;18.08;;;5.80;99.90;;;;;;6286251;28;20049;-81
2022/12/02 12:29:59;;;;;;;31.10;17.08;;;5.80;99.90;;;;;;6285365;28;20052;-81
2022/12/02 12:33:00;;;;;;;26.55;15.10;;;5.80;99.90;;;;;;6286232;28;20047;-82
2022/12/02 12:36:03;;;;;;;28.33;14.55;;;5.80;99.90;;;;;;6285958;28;20127;-81
2022/12/02 12:39:08;;;;;;;25.40;14.40;;;5.80;99.90;;;;;;6285159;28;20098;-81
2022/12/02 12:42:09;;;;;;;28.38;15.75;;;5.80;99.90;;;;;;6287361;28;20045;-81
2022/12/02 12:45:11;;;;;;;24.38;14.82;;;5.90;99.90;;;;;;6287180;28;20041;-81
2022/12/02 12:48:13;;;;;;;23.65;14.73;;;5.80;99.90;;;;;;6285634;28;20048;-81
2022/12/02 12:51:16;;;;;;;29.92;14.55;;;5.80;99.90;;;;;;6286279;28;20052;-82
2022/12/02 12:54:19;;;;;;;26.50;13.65;;;5.80;99.90;;;;;;6285147;28;20052;-82
2022/12/02 12:57:21;;;;;;;26.30;14.60;;;5.70;99.90;;;;;;6283469;28;20037;-82
2022/12/02 13:00:23;;;;;;;30.85;16.98;;;5.70;99.90;;;;;;6284085;28;20041;-81
2022/12/02 13:03:25;;;;;;;28.27;14.75;;;5.70;99.90;;;;;;6284075;28;20052;-81
2022/12/02 13:06:31;;;;;;;35.60;16.08;;;5.70;99.90;;;;;;6284960;28;20594;-82
2022/12/02 13:09:34;;;;;;;48.75;31.75;;;5.70;99.90;;;;;;6302202;28;20049;-81
2022/12/02 13:12:35;;;;;;;39.85;32.13;;;5.70;99.90;;;;;;6309589;28;20498;-81
2022/12/02 13:15:37;;;;;;;35.42;21.40;;;5.70;99.90;;;;;;6310400;28;20040;-81
2022/12/02 13:18:39;;;;;;;28.83;18.95;;;5.70;99.90;;;;;;6309385;28;20049;-83
2022/12/02 13:21:41;;;;;;;34.67;20.17;;;5.70;99.90;;;;;;6245592;28;20060;-81
2022/12/02 13:24:44;;;;;;;31.15;16.70;;;5.70;99.90;;;;;;6271462;28;20055;-82
2022/12/02 13:27:46;;;;;;;33.40;17.30;;;5.70;99.90;;;;;;6280655;28;20051;-81
2022/12/02 13:30:55;;;;;;;34.83;19.83;;;5.70;99.90;;;;;;6280530;28;20045;-82
2022/12/02 13:33:57;;;;;;;40.50;20.52;;;5.70;99.90;;;;;;6280932;28;20092;-81
2022/12/02 13:37:00;;;;;;;37.35;19.50;;;5.80;99.90;;;;;;6281002;28;20049;-83
2022/12/02 13:40:04;;;;;;;32.72;16.55;;;5.70;99.90;;;;;;6279447;28;20052;-81
2022/12/02 13:43:06;;;;;;;29.13;19.00;;;5.70;99.90;;;;;;6283751;28;20057;-81
2022/12/02 13:46:08;;;;;;;34.53;17.65;;;5.70;99.90;;;;;;6279817;28;20051;-82
2022/12/02 13:49:09;;;;;;;40.03;30.60;;;5.70;99.90;;;;;;6278391;28;20055;-81
2022/12/02 13:52:11;;;;;;;34.53;20.67;;;5.70;99.90;;;;;;6270713;28;20064;-83
2022/12/02 13:55:17;;;;;;;30.73;17.00;;;5.70;99.90;;;;;;6254274;28;20049;-85
2022/12/02 13:58:25;;;;;;;37.92;18.70;;;5.60;99.90;;;;;;6253093;28;20049;-82
2022/12/02 14:01:32;;;;;;;;;;;5.60;99.90;;;;;;6253239;28;20135;-82
2022/12/02 14:04:34;;;;;;;32.97;17.77;;;5.50;99.90;;;;;;6255312;28;19928;-82
2022/12/02 14:07:36;;;;;;;28.95;14.20;;;5.60;99.90;;;;;;6260053;28;20045;-82
2022/12/02 14:10:40;;;;;;;33.38;17.83;;;5.50;99.90;;;;;;6304088;28;20521;-81
2022/12/02 14:13:41;;;;;;;27.33;14.98;;;5.50;99.90;;;;;;6311478;28;20058;-82
2022/12/02 14:16:45;;;;;;;32.63;16.52;;;5.50;99.90;;;;;;6299278;28;20048;-81
2022/12/02 14:19:52;;;;;;;28.58;14.90;;;5.50;99.90;;;;;;6280987;28;20141;-83
2022/12/02 14:22:54;;;;;;;26.33;14.95;;;5.40;99.90;;;;;;6284112;28;20052;-84
2022/12/02 14:25:57;;;;;;;29.20;16.33;;;5.50;99.90;;;;;;6275534;28;20417;-83
2022/12/02 14:28:59;;;;;;;29.33;16.08;;;5.40;99.90;;;;;;6259439;28;20064;-82
2022/12/02 14:32:05;;;;;;;34.75;19.80;;;5.40;99.90;;;;;;6250067;28;20417;-83
2022/12/02 14:35:07;;;;;;;32.13;18.80;;;5.30;99.90;;;;;;6249793;28;20053;-81
2022/12/02 14:38:09;;;;;;;22.67;16.60;;;5.30;99.90;;;;;;6248592;28;20053;-81
2022/12/02 14:41:12;;;;;;;26.98;15.55;;;5.30;99.90;;;;;;6250147;28;20142;-82
2022/12/02 14:44:16;;;;;;;25.77;14.50;;;5.30;99.90;;;;;;6249607;28;20207;-83
2022/12/02 14:47:18;;;;;;;21.35;13.45;;;5.30;99.90;;;;;;6244278;28;20061;-85
2022/12/02 14:50:25;;;;;;;21.75;11.80;;;5.30;99.90;;;;;;6251146;28;20057;-80
2022/12/02 14:53:27;;;;;;;21.55;12.48;;;5.20;99.90;;;;;;6251639;28;20041;-82
2022/12/02 14:56:30;;;;;;;21.13;13.65;;;5.30;99.90;;;;;;6253064;28;20046;-81
2022/12/02 14:59:32;;;;;;;22.05;14.07;;;5.20;99.90;;;;;;6251969;28;20055;-83
2022/12/02 15:02:34;;;;;;;20.85;12.48;;;5.30;99.90;;;;;;6277914;28;20049;-82
2022/12/02 15:05:35;;;;;;;29.65;14.23;;;5.20;99.90;;;;;;6276399;28;20055;-83
2022/12/02 15:08:37;;;;;;;21.13;14.18;;;5.20;99.90;;;;;;6273863;28;20411;-80
2022/12/02 15:11:40;;;;;;;23.35;15.73;;;5.10;99.90;;;;;;6249715;28;20499;-81
2022/12/02 15:14:42;;;;;;;22.15;14.57;;;5.10;99.90;;;;;;6252294;28;20056;-81
2022/12/02 15:17:44;;;;;;;53.60;28.67;;;5.10;99.90;;;;;;6250611;28;20120;-83
2022/12/02 15:20:49;;;;;;;20.70;12.98;;;5.10;99.90;;;;;;6252319;28;20049;-84
2022/12/02 15:23:50;;;;;;;23.92;17.13;;;5.10;99.90;;;;;;6251300;28;20075;-83
2022/12/02 15:26:53;;;;;;;20.45;14.40;;;5.10;99.90;;;;;;6251465;28;20053;-80
2022/12/02 15:29:55;;;;;;;26.40;16.45;;;5.00;99.90;;;;;;6250451;28;20507;-80
2022/12/02 15:33:05;;;;;;;24.77;16.67;;;4.90;99.90;;;;;;6251631;28;20051;-80
2022/12/02 15:36:10;;;;;;;18.73;12.75;;;4.80;99.90;;;;;;6244483;28;20049;-81
2022/12/02 15:39:12;;;;;;;16.58;10.50;;;4.80;99.90;;;;;;6250115;28;20053;-81
2022/12/02 15:42:15;;;;;;;21.73;15.32;;;4.70;99.90;;;;;;6251015;28;20073;-80
2022/12/02 15:45:17;;;;;;;18.40;12.40;;;4.70;99.90;;;;;;6250576;28;20045;-81
2022/12/02 15:48:24;;;;;;;14.07;10.95;;;4.60;99.90;;;;;;6248843;28;20116;-82
2022/12/02 15:51:26;;;;;;;23.83;13.27;;;4.60;99.90;;;;;;6254228;28;20035;-81
2022/12/02 15:54:35;;;;;;;14.90;12.52;;;4.60;99.90;;;;;;6258423;28;20064;-82